createdAt,value
2023-01-23T00:01:22.701Z,99510.03
2023-01-23T00:03:49.382Z,99509.97
2023-01-23T00:08:48.839Z,99515.72
2023-01-23T00:11:21.367Z,99513.00
2023-01-23T00:13:48.387Z,99504.38
2023-01-23T00:16:19.080Z,99508.78
2023-01-23T00:18:46.611Z,99512.56
2023-01-23T00:21:16.117Z,99514.94
2023-01-23T00:23:50.636Z,99511.44
2023-01-23T00:26:23.022Z,99514.19
2023-01-23T00:28:50.778Z,99510.47
2023-01-23T00:31:25.437Z,99511.75
2023-01-23T00:34:01.195Z,99516.09
2023-01-23T00:36:35.303Z,99519.19
2023-01-23T00:39:03.836Z,99516.31
2023-01-23T00:41:30.484Z,99512.25
2023-01-23T00:43:57.031Z,99516.31
2023-01-23T00:46:24.228Z,99515.25
2023-01-23T00:48:51.224Z,99510.97
2023-01-23T00:51:18.091Z,99510.94
2023-01-23T00:53:44.978Z,99514.72
2023-01-23T00:56:12.337Z,99510.91
2023-01-23T00:58:40.605Z,99508.25
2023-01-23T01:01:07.418Z,99513.06
2023-01-23T01:03:34.868Z,99501.25
2023-01-23T01:06:01.913Z,99506.09
2023-01-23T01:08:29.034Z,99518.47
2023-01-23T01:10:55.756Z,99522.50
2023-01-23T01:13:23.914Z,99524.03
2023-01-23T01:15:51.962Z,99531.84
2023-01-23T01:18:19.329Z,99536.19
2023-01-23T01:20:46.059Z,99543.41
2023-01-23T01:23:13.212Z,99538.78
2023-01-23T01:25:40.208Z,99538.56
2023-01-23T01:30:41.650Z,99548.25
2023-01-23T01:33:08.619Z,99548.56
2023-01-23T01:35:35.336Z,99550.97
2023-01-23T01:38:01.899Z,99547.44
2023-01-23T01:40:35.209Z,99555.44
2023-01-23T01:43:08.259Z,99550.94
2023-01-23T01:45:59.562Z,99554.97
2023-01-23T01:48:32.152Z,99551.22
2023-01-23T01:51:00.729Z,99550.41
2023-01-23T01:53:30.878Z,99558.97
2023-01-23T01:55:58.805Z,99554.69
2023-01-23T02:01:16.476Z,99557.69
2023-01-23T02:03:45.060Z,99555.50
2023-01-23T02:06:12.424Z,99564.16
2023-01-23T02:08:52.643Z,99564.97
2023-01-23T02:11:19.540Z,99566.31
2023-01-23T02:13:46.204Z,99568.69
2023-01-23T02:16:40.310Z,99555.53
2023-01-23T02:19:37.839Z,99556.63
2023-01-23T02:22:14.027Z,99562.53
2023-01-23T02:24:51.291Z,99558.72
2023-01-23T02:27:17.825Z,99563.09
2023-01-23T02:29:46.045Z,99555.50
2023-01-23T02:32:12.573Z,99546.34
2023-01-23T02:34:39.211Z,99543.53
2023-01-23T02:37:08.100Z,99548.41
2023-01-23T02:42:10.530Z,99555.56
2023-01-23T02:44:37.053Z,99547.00
2023-01-23T02:49:40.629Z,99562.59
2023-01-23T02:52:07.432Z,99555.09
2023-01-23T02:54:34.087Z,99559.84
2023-01-23T02:57:00.703Z,99551.22
2023-01-23T02:59:45.899Z,99559.53
2023-01-23T03:05:02.163Z,99570.25
2023-01-23T03:07:28.687Z,99558.16
2023-01-23T03:09:55.241Z,99570.06
2023-01-23T03:15:10.671Z,99560.38
2023-01-23T03:17:37.207Z,99552.78
2023-01-23T03:20:06.030Z,99555.47
2023-01-23T03:22:32.550Z,99553.78
2023-01-23T03:24:59.165Z,99542.16
2023-01-23T03:27:25.774Z,99548.91
2023-01-23T03:30:10.797Z,99544.06
2023-01-23T03:32:38.787Z,99545.19
2023-01-23T03:35:07.845Z,99548.59
2023-01-23T03:37:34.402Z,99545.06
2023-01-23T03:40:19.562Z,99548.41
2023-01-23T03:42:46.353Z,99540.91
2023-01-23T03:45:13.337Z,99543.09
2023-01-23T03:47:39.877Z,99544.97
2023-01-23T03:50:07.842Z,99549.28
2023-01-23T03:52:35.029Z,99546.84
2023-01-23T03:55:01.588Z,99556.75
2023-01-23T03:57:28.158Z,99551.63
2023-01-23T03:59:55.348Z,99560.78
2023-01-23T04:02:21.990Z,99555.97
2023-01-23T04:04:48.565Z,99552.69
2023-01-23T04:07:15.261Z,99559.41
2023-01-23T04:09:41.831Z,99560.78
2023-01-23T04:12:08.444Z,99560.22
2023-01-23T04:14:37.765Z,99569.44
2023-01-23T04:17:06.258Z,99563.72
2023-01-23T04:19:33.183Z,99568.31
2023-01-23T04:22:00.501Z,99572.41
2023-01-23T04:24:27.578Z,99570.44
2023-01-23T04:26:54.232Z,99577.44
2023-01-23T04:31:52.193Z,99595.81
2023-01-23T04:34:18.809Z,99594.41
2023-01-23T04:36:45.324Z,99598.69
2023-01-23T04:39:11.869Z,99597.31
2023-01-23T04:41:38.402Z,99592.47
2023-01-23T04:44:23.215Z,99593.00
2023-01-23T04:46:53.189Z,99592.50
2023-01-23T04:49:22.035Z,99598.50
2023-01-23T04:51:50.141Z,99599.00
2023-01-23T04:54:18.148Z,99594.06
2023-01-23T04:56:45.508Z,99596.28
2023-01-23T04:59:12.732Z,99591.47
2023-01-23T05:01:39.838Z,99595.16
2023-01-23T05:04:06.410Z,99595.91
2023-01-23T05:06:33.491Z,99596.25
2023-01-23T05:09:00.114Z,99595.97
2023-01-23T05:11:26.737Z,99594.59
2023-01-23T05:13:53.369Z,99596.25
2023-01-23T05:16:20.008Z,99600.00
2023-01-23T05:18:46.516Z,99597.88
2023-01-23T05:21:13.115Z,99600.63
2023-01-23T05:23:39.670Z,99593.84
2023-01-23T05:28:37.435Z,99595.78
2023-01-23T05:31:04.227Z,99601.19
2023-01-23T05:33:30.868Z,99598.53
2023-01-23T05:36:01.425Z,99595.78
2023-01-23T05:38:28.046Z,99602.78
2023-01-23T05:40:54.687Z,99590.44
2023-01-23T05:43:21.243Z,99608.72
2023-01-23T05:45:47.912Z,99607.38
2023-01-23T05:48:15.210Z,99612.50
2023-01-23T05:50:41.840Z,99597.94
2023-01-23T05:53:08.413Z,99592.59
2023-01-23T05:55:35.048Z,99609.28
2023-01-23T05:58:01.572Z,99601.44
2023-01-23T06:00:28.071Z,99608.50
2023-01-23T06:02:54.744Z,99611.16
2023-01-23T06:05:21.489Z,99616.00
2023-01-23T06:07:48.119Z,99608.19
2023-01-23T06:10:15.055Z,99614.34
2023-01-23T06:12:41.623Z,99612.78
2023-01-23T06:15:08.673Z,99611.97
2023-01-23T06:17:35.667Z,99620.03
2023-01-23T06:20:02.497Z,99622.97
2023-01-23T06:22:31.377Z,99627.00
2023-01-23T06:24:58.188Z,99622.75
2023-01-23T06:27:24.857Z,99632.69
2023-01-23T06:29:51.420Z,99643.13
2023-01-23T06:34:49.624Z,99643.66
2023-01-23T06:37:16.325Z,99646.41
2023-01-23T06:39:42.976Z,99657.94
2023-01-23T06:42:10.456Z,99664.13
2023-01-23T06:44:37.651Z,99669.25
2023-01-23T06:47:05.383Z,99675.19
2023-01-23T06:49:32.202Z,99671.16
2023-01-23T06:51:58.779Z,99678.69
2023-01-23T06:54:25.428Z,99679.53
2023-01-23T06:56:52.020Z,99687.84
2023-01-23T06:59:18.728Z,99683.78
2023-01-23T07:01:45.375Z,99687.81
2023-01-23T07:04:11.935Z,99694.84
2023-01-23T07:06:38.633Z,99689.16
2023-01-23T07:09:05.526Z,99697.09
2023-01-23T07:11:32.218Z,99694.16
2023-01-23T07:13:58.958Z,99695.00
2023-01-23T07:16:25.535Z,99695.03
2023-01-23T07:18:52.264Z,99698.50
2023-01-23T07:21:18.767Z,99700.44
2023-01-23T07:23:45.332Z,99703.41
2023-01-23T07:26:12.381Z,99698.59
2023-01-23T07:28:39.704Z,99709.66
2023-01-23T07:31:06.964Z,99712.06
2023-01-23T07:33:33.586Z,99709.38
2023-01-23T07:36:00.174Z,99719.31
2023-01-23T07:38:26.840Z,99704.50
2023-01-23T07:40:53.413Z,99714.19
2023-01-23T07:43:19.934Z,99710.44
2023-01-23T07:45:46.531Z,99710.72
2023-01-23T07:48:13.130Z,99702.06
2023-01-23T07:50:39.658Z,99712.34
2023-01-23T07:53:06.583Z,99705.59
2023-01-23T07:55:33.831Z,99705.03
2023-01-23T07:58:00.799Z,99700.22
2023-01-23T08:00:29.699Z,99699.94
2023-01-23T08:02:56.878Z,99698.63
2023-01-23T08:05:23.636Z,99695.09
2023-01-23T08:07:53.773Z,99701.81
2023-01-23T08:10:24.478Z,99689.44
2023-01-23T08:12:51.034Z,99700.78
2023-01-23T08:15:17.888Z,99702.38
2023-01-23T08:17:44.571Z,99700.78
2023-01-23T08:20:11.647Z,99702.94
2023-01-23T08:22:40.994Z,99711.56
2023-01-23T08:25:11.189Z,99711.00
2023-01-23T08:27:38.115Z,99704.53
2023-01-23T08:30:06.655Z,99700.50
2023-01-23T08:32:36.150Z,99704.53
2023-01-23T08:35:04.565Z,99709.69
2023-01-23T08:37:31.209Z,99698.59
2023-01-23T08:39:58.068Z,99692.44
2023-01-23T08:42:24.618Z,99704.28
2023-01-23T08:44:51.163Z,99709.94
2023-01-23T08:47:17.764Z,99701.59
2023-01-23T08:49:44.322Z,99691.63
2023-01-23T08:52:10.932Z,99702.63
2023-01-23T08:54:37.568Z,99705.28
2023-01-23T08:57:04.235Z,99705.53
2023-01-23T08:59:30.767Z,99709.31
2023-01-23T09:01:57.376Z,99722.53
2023-01-23T09:04:24.005Z,99712.22
2023-01-23T09:06:50.646Z,99707.59
2023-01-23T09:11:50.969Z,99707.06
2023-01-23T09:16:50.898Z,99702.00
2023-01-23T09:19:17.541Z,99700.13
2023-01-23T09:24:22.646Z,99717.97
2023-01-23T09:26:49.233Z,99720.09
2023-01-23T09:31:54.232Z,99718.50
2023-01-23T09:34:20.885Z,99715.78
2023-01-23T09:36:47.471Z,99718.72
2023-01-23T09:39:14.026Z,99720.31
2023-01-23T09:41:41.359Z,99724.66
2023-01-23T09:44:19.466Z,99722.78
2023-01-23T09:46:57.885Z,99722.50
2023-01-23T09:49:28.992Z,99730.28
2023-01-23T09:52:01.964Z,99737.78
2023-01-23T09:55:13.907Z,99727.53
2023-01-23T09:57:48.834Z,99735.31
2023-01-23T10:00:18.186Z,99729.66
2023-01-23T10:02:45.409Z,99728.56
2023-01-23T10:05:17.175Z,99726.44
2023-01-23T10:07:49.844Z,99723.75
2023-01-23T10:10:37.122Z,99718.34
2023-01-23T10:13:16.780Z,99715.66
2023-01-23T10:16:33.269Z,99717.84
2023-01-23T10:19:19.746Z,99723.19
2023-01-23T10:21:59.842Z,99733.41
2023-01-23T10:24:54.025Z,99724.25
2023-01-23T10:27:21.840Z,99724.50
2023-01-23T10:30:27.605Z,99730.13
2023-01-23T10:33:00.336Z,99705.06
2023-01-23T10:35:36.503Z,99707.22
2023-01-23T10:38:27.569Z,99711.81
2023-01-23T10:41:12.825Z,99712.31
2023-01-23T10:43:40.918Z,99723.63
2023-01-23T10:46:13.844Z,99719.81
2023-01-23T10:48:47.052Z,99717.66
2023-01-23T10:51:43.846Z,99713.47
2023-01-23T10:54:19.409Z,99710.78
2023-01-23T10:57:01.607Z,99709.13
2023-01-23T10:59:51.661Z,99697.84
2023-01-23T11:02:20.350Z,99702.66
2023-01-23T11:04:51.862Z,99696.13
2023-01-23T11:07:27.261Z,99696.13
2023-01-23T11:10:00.438Z,99692.09
2023-01-23T11:12:32.040Z,99695.03
2023-01-23T11:15:14.149Z,99686.31
2023-01-23T11:17:42.489Z,99675.53
2023-01-23T11:20:24.647Z,99683.06
2023-01-23T11:23:00.157Z,99679.00
2023-01-23T11:25:40.701Z,99670.03
2023-01-23T11:28:35.552Z,99670.91
2023-01-23T11:31:21.487Z,99661.50
2023-01-23T11:33:57.737Z,99663.41
2023-01-23T11:36:36.400Z,99662.44
2023-01-23T11:39:36.095Z,99669.72
2023-01-23T11:42:03.516Z,99666.44
2023-01-23T11:44:38.067Z,99665.88
2023-01-23T11:47:44.798Z,99661.06
2023-01-23T11:50:29.775Z,99649.44
2023-01-23T11:53:16.062Z,99658.28
2023-01-23T11:56:18.416Z,99646.47
2023-01-23T11:59:09.232Z,99658.31
2023-01-23T12:02:03.090Z,99659.38
2023-01-23T12:04:44.021Z,99655.16
2023-01-23T12:07:17.840Z,99658.06
2023-01-23T12:10:09.399Z,99653.97
2023-01-23T12:13:04.951Z,99654.44
2023-01-23T12:16:03.295Z,99648.25
2023-01-23T12:21:37.394Z,99641.31
2023-01-23T12:24:17.318Z,99637.06
2023-01-23T12:27:00.071Z,99618.81
2023-01-23T12:30:10.910Z,99614.16
2023-01-23T12:33:02.530Z,99624.25
2023-01-23T12:35:50.265Z,99609.75
2023-01-23T12:38:37.228Z,99602.97
2023-01-23T12:41:20.022Z,99598.06
2023-01-23T12:43:59.665Z,99586.75
2023-01-23T12:46:34.148Z,99583.16
2023-01-23T12:49:25.745Z,99586.78
2023-01-23T12:52:25.812Z,99587.84
2023-01-23T12:55:17.939Z,99578.16
2023-01-23T12:58:00.253Z,99569.13
2023-01-23T13:00:40.671Z,99575.81
2023-01-23T13:03:15.004Z,99569.44
2023-01-23T13:06:16.357Z,99572.84
2023-01-23T13:09:00.024Z,99577.06
2023-01-23T13:11:42.226Z,99576.34
2023-01-23T13:14:25.566Z,99568.63
2023-01-23T13:16:57.996Z,99569.66
2023-01-23T13:19:45.414Z,99583.28
2023-01-23T13:25:13.216Z,99574.91
2023-01-23T13:27:58.289Z,99574.09
2023-01-23T13:30:31.902Z,99580.78
2023-01-23T13:33:01.867Z,99581.59
2023-01-23T13:35:53.045Z,99570.63
2023-01-23T13:38:22.339Z,99571.94
2023-01-23T13:41:18.411Z,99573.09
2023-01-23T13:43:50.929Z,99570.03
2023-01-23T14:21:49.245Z,99590.72
2023-01-23T14:24:23.414Z,99591.44
2023-01-23T14:26:53.316Z,99587.28
2023-01-23T14:29:24.961Z,99574.50
2023-01-23T14:31:52.522Z,99579.84
2023-01-23T14:34:22.198Z,99578.22
2023-01-23T14:36:53.039Z,99572.38
2023-01-23T14:39:26.214Z,99568.69
2023-01-23T14:41:55.515Z,99564.78
2023-01-23T14:47:05.542Z,99568.25
2023-01-23T14:49:36.818Z,99580.56
2023-01-23T14:52:06.086Z,99567.03
2023-01-23T14:54:34.655Z,99570.31
2023-01-23T14:57:05.666Z,99572.84
2023-01-23T14:59:38.864Z,99568.00
2023-01-23T15:02:31.422Z,99566.34
2023-01-23T15:05:13.168Z,99573.34
2023-01-23T15:07:45.307Z,99566.81
2023-01-23T15:10:22.433Z,99583.84
2023-01-23T15:12:53.808Z,99572.00
2023-01-23T15:15:22.915Z,99565.00
2023-01-23T15:17:50.950Z,99572.16
2023-01-23T15:20:40.793Z,99564.91
2023-01-23T15:23:20.664Z,99562.72
2023-01-23T15:25:57.366Z,99574.53
2023-01-23T15:28:40.214Z,99570.50
2023-01-23T15:31:24.125Z,99571.31
2023-01-23T15:33:51.315Z,99571.09
2023-01-23T15:36:27.244Z,99563.03
2023-01-23T15:38:55.852Z,99568.97
2023-01-23T15:41:43.771Z,99560.28
2023-01-23T15:44:15.733Z,99563.84
2023-01-23T15:46:42.532Z,99562.53
2023-01-23T15:49:23.625Z,99573.84
2023-01-23T15:51:51.760Z,99588.94
2023-01-23T15:54:34.192Z,99587.38
2023-01-23T15:57:07.591Z,99583.78
2023-01-23T15:59:35.748Z,99590.59
2023-01-23T16:02:02.415Z,99594.34
2023-01-23T16:04:29.010Z,99584.34
2023-01-23T16:06:55.720Z,99602.09
2023-01-23T16:09:28.034Z,99592.78
2023-01-23T16:11:54.801Z,99604.47
2023-01-23T16:14:21.470Z,99601.00
2023-01-23T16:16:48.187Z,99603.16
2023-01-23T16:19:14.856Z,99596.13
2023-01-23T16:21:47.702Z,99598.06
2023-01-23T16:24:24.162Z,99615.34
2023-01-23T16:26:52.113Z,99610.75
2023-01-23T16:29:30.524Z,99608.63
2023-01-23T16:31:59.363Z,99607.53
2023-01-23T16:34:26.860Z,99607.25
2023-01-23T16:36:56.582Z,99607.75
2023-01-23T16:39:26.539Z,99615.19
2023-01-23T16:41:56.529Z,99606.59
2023-01-23T16:44:26.792Z,99611.47
2023-01-23T16:46:53.956Z,99607.44
2023-01-23T16:49:21.015Z,99604.38
2023-01-23T16:52:06.033Z,99602.00
2023-01-23T16:54:32.749Z,99609.91
2023-01-23T16:57:01.912Z,99613.59
2023-01-23T16:59:34.877Z,99600.84
2023-01-23T17:02:08.103Z,99622.25
2023-01-23T17:04:34.681Z,99621.78
2023-01-23T17:07:01.316Z,99617.59
2023-01-23T17:09:27.894Z,99622.25
2023-01-23T17:11:56.597Z,99627.97
2023-01-23T17:14:28.486Z,99630.75
2023-01-23T17:17:02.070Z,99632.00
2023-01-23T17:19:36.503Z,99629.19
2023-01-23T17:22:05.913Z,99628.13
2023-01-23T17:24:32.641Z,99630.34
2023-01-23T17:26:59.236Z,99635.19
2023-01-23T17:29:26.097Z,99629.09
2023-01-23T17:31:53.332Z,99645.13
2023-01-23T17:34:24.785Z,99643.19
2023-01-23T17:36:53.076Z,99648.91
2023-01-23T17:39:20.656Z,99651.28
2023-01-23T17:41:47.993Z,99649.19
2023-01-23T17:44:14.576Z,99647.47
2023-01-23T17:46:41.480Z,99650.69
2023-01-23T17:49:27.677Z,99652.28
2023-01-23T17:51:55.016Z,99653.66
2023-01-23T17:54:21.633Z,99652.59
2023-01-23T17:56:48.217Z,99656.66
2023-01-23T17:59:14.803Z,99659.91
2023-01-23T18:01:41.488Z,99646.41
2023-01-23T18:04:16.030Z,99655.25
2023-01-23T18:06:42.752Z,99655.75
2023-01-23T18:09:09.369Z,99661.63
2023-01-23T18:11:38.044Z,99661.41
2023-01-23T18:14:28.550Z,99672.50
2023-01-23T18:16:55.672Z,99664.66
2023-01-23T18:19:25.019Z,99668.31
2023-01-23T18:21:56.846Z,99673.13
2023-01-23T18:24:30.444Z,99666.91
2023-01-23T18:26:58.528Z,99663.13
2023-01-23T18:29:33.937Z,99662.88
2023-01-23T18:32:19.238Z,99662.34
2023-01-23T18:34:45.740Z,99660.44
2023-01-23T18:37:29.613Z,99656.44
2023-01-23T18:40:20.934Z,99655.31
2023-01-23T18:42:56.157Z,99654.50
2023-01-23T18:45:27.388Z,99655.91
2023-01-23T18:47:55.260Z,99654.50
2023-01-23T18:50:27.124Z,99651.28
2023-01-23T18:53:17.373Z,99651.59
2023-01-23T18:56:14.591Z,99656.19
2023-01-23T18:58:43.856Z,99660.00
2023-01-23T19:01:34.715Z,99656.28
2023-01-23T19:04:01.646Z,99652.97
2023-01-23T19:06:33.339Z,99650.56
2023-01-23T19:09:00.791Z,99653.19
2023-01-23T19:11:39.045Z,99648.84
2023-01-23T19:14:40.440Z,99636.97
2023-01-23T19:17:36.954Z,99617.22
2023-01-23T19:20:22.436Z,99607.69
2023-01-23T19:23:16.661Z,99612.50
2023-01-23T19:25:47.953Z,99619.50
2023-01-23T19:28:15.924Z,99620.34
2023-01-23T19:30:43.548Z,99623.94
2023-01-23T19:33:16.022Z,99637.84
2023-01-23T19:35:44.096Z,99630.66
2023-01-23T19:38:10.806Z,99641.22
2023-01-23T19:40:37.482Z,99649.09
2023-01-23T19:43:14.055Z,99652.41
2023-01-23T19:45:41.466Z,99651.06
2023-01-23T19:48:09.249Z,99661.72
2023-01-23T19:50:35.825Z,99660.00
2023-01-23T19:53:03.018Z,99663.22
2023-01-23T19:55:32.034Z,99666.41
2023-01-23T19:57:59.164Z,99661.84
2023-01-23T20:03:02.750Z,99665.84
2023-01-23T20:05:29.321Z,99666.31
2023-01-23T20:07:55.973Z,99669.03
2023-01-23T20:10:22.775Z,99671.72
2023-01-23T20:12:52.298Z,99668.75
2023-01-23T20:15:21.451Z,99683.25
2023-01-23T20:17:48.484Z,99670.03
2023-01-23T20:20:15.460Z,99681.38
2023-01-23T20:22:43.047Z,99677.81
2023-01-23T20:25:12.523Z,99689.38
2023-01-23T20:27:40.737Z,99685.88
2023-01-23T20:30:12.496Z,99684.50
2023-01-23T20:32:39.068Z,99680.69
2023-01-23T20:35:05.899Z,99675.03
2023-01-23T20:37:32.494Z,99676.16
2023-01-23T20:39:59.186Z,99678.00
2023-01-23T20:42:25.822Z,99682.91
2023-01-23T20:44:52.460Z,99682.31
2023-01-23T20:47:19.019Z,99683.34
2023-01-23T20:49:45.583Z,99688.53
2023-01-23T20:52:30.954Z,99691.34
2023-01-23T20:54:57.780Z,99691.28
2023-01-23T20:57:44.310Z,99686.94
2023-01-23T21:00:11.584Z,99688.53
2023-01-23T21:02:38.377Z,99695.09
2023-01-23T21:05:05.827Z,99693.03
2023-01-23T21:07:33.164Z,99691.38
2023-01-23T21:09:59.760Z,99694.44
2023-01-23T21:12:26.386Z,99700.59
2023-01-23T21:14:52.918Z,99701.16
2023-01-23T21:17:19.565Z,99700.13
2023-01-23T21:19:47.485Z,99704.72
2023-01-23T21:22:14.048Z,99712.88
2023-01-23T21:27:14.007Z,99708.78
2023-01-23T21:29:40.655Z,99709.91
2023-01-23T21:32:07.226Z,99709.06
2023-01-23T21:34:34.122Z,99707.75
2023-01-23T21:37:00.736Z,99714.78
2023-01-23T21:39:27.314Z,99713.09
2023-01-23T21:44:30.804Z,99709.53
2023-01-23T21:46:57.479Z,99704.38
2023-01-23T21:49:24.051Z,99687.66
2023-01-23T21:51:50.693Z,99692.94
2023-01-23T21:54:17.441Z,99686.56
2023-01-23T21:56:43.995Z,99687.19
2023-01-23T21:59:11.139Z,99704.81
2023-01-23T22:01:42.754Z,99702.41
2023-01-23T22:04:11.371Z,99704.25
2023-01-23T22:06:39.997Z,99710.66
2023-01-23T22:09:07.691Z,99703.34
2023-01-23T22:11:34.674Z,99708.53
2023-01-23T22:14:01.842Z,99703.13
2023-01-23T22:16:46.848Z,99716.78
2023-01-23T22:19:15.483Z,99715.53
2023-01-23T22:21:43.475Z,99723.03
2023-01-23T22:24:13.204Z,99717.81
2023-01-23T22:26:39.964Z,99707.94
2023-01-23T22:29:07.044Z,99725.16
2023-01-23T22:31:33.898Z,99715.69
2023-01-23T22:34:00.654Z,99716.69
2023-01-23T22:36:27.239Z,99723.75
2023-01-23T22:38:54.603Z,99714.09
2023-01-23T22:41:22.039Z,99725.66
2023-01-23T22:43:53.689Z,99723.56
2023-01-23T22:46:20.468Z,99718.22
2023-01-23T22:48:47.091Z,99716.84
2023-01-23T22:51:17.124Z,99716.78
2023-01-23T22:53:44.133Z,99717.88
2023-01-23T22:56:11.187Z,99722.47
2023-01-23T22:58:37.938Z,99724.31
2023-01-23T23:01:05.300Z,99729.19
2023-01-23T23:03:33.712Z,99728.63
2023-01-23T23:08:36.720Z,99731.63
2023-01-23T23:11:11.634Z,99733.53
2023-01-23T23:13:39.909Z,99731.84
2023-01-23T23:16:09.547Z,99723.66
2023-01-23T23:18:39.211Z,99719.94
2023-01-23T23:21:08.998Z,99721.63
2023-01-23T23:23:36.193Z,99728.56
2023-01-23T23:28:39.784Z,99731.28
2023-01-23T23:31:08.621Z,99731.06
2023-01-23T23:33:35.605Z,99730.31
2023-01-23T23:36:02.323Z,99739.16
2023-01-23T23:38:28.900Z,99729.69
2023-01-23T23:40:55.847Z,99735.13
2023-01-23T23:43:22.602Z,99735.88
2023-01-23T23:45:53.905Z,99735.06
2023-01-23T23:48:21.571Z,99728.56
2023-01-23T23:50:48.475Z,99728.81
2023-01-23T23:53:15.483Z,99733.06
2023-01-23T23:55:42.348Z,99733.34
